Flight Track Log - Related Links

Times and Time Zones

All times are in EDT time to prevent confusion due to time zone crossing. See the AAL1459 flight status page for this flight to view local times or setup timezone preferences in your user account.

Time Position Orientation Groundspeed Altitude Reporting Facility
EDT Latitude Longitude Course Direction KTS MPH feet Rate Location/Type
Tue 07:00:23 PM 41.9640 -87.8870 217° Southwest 110 127  Level FlightAware ADS-B
Tue 07:00:51 PM 41.9490 -87.9050 222° Southwest 159 183 1,400 2,571 Climbing FlightAware ADS-B
Tue 07:01:12 PM 41.9380 -87.9180 221° Southwest 164 189 2,100 1,636 Climbing FlightAware ADS-B
Tue 07:01:35 PM 41.9230 -87.9360 222° Southwest 190 219 2,600 1,500 Climbing FlightAware ADS-B
Tue 07:01:40 PM 41.9210 -87.9400 236° Southwest 192 221 2,800 2,500 Climbing FlightAware ADS-B
Tue 07:01:47 PM 41.9190 -87.9490 253° West 193 222 3,100 1,778 Climbing FlightAware ADS-B
Tue 07:02:07 PM 41.9110 -87.9730 246° West 216 249 3,600 1,500 Climbing FlightAware ADS-B
Tue 07:02:23 PM 41.9060 -87.9940 252° West 235 270 4,000 1,636 Climbing FlightAware ADS-B
Tue 07:02:29 PM 41.9060 -88.0030 270° West 242 278 4,200 1,929 Climbing FlightAware ADS-B
Tue 07:02:51 PM 41.9130 -88.0360 286° West 260 299 4,900 1,412 Climbing FlightAware ADS-B
Tue 07:03:03 PM 41.9210 -88.0530 302° West 261 300 5,000 162 Climbing FlightAware ADS-B
Tue 07:03:28 PM 41.9360 -88.0850 302° West 261 300 5,000 267 Level FlightAware ADS-B
Tue 07:03:48 PM 41.9500 -88.1130 304° West 262 302 5,200 1,125 Climbing FlightAware ADS-B
Tue 07:04:00 PM 41.9580 -88.1290 304° West 261 300 5,600 2,743 Climbing FlightAware ADS-B
Tue 07:04:23 PM 41.9700 -88.1620 296° West 255 293 6,800 3,111 Climbing FlightAware ADS-B
Tue 07:04:27 PM 41.9710 -88.1690 281° West 255 293 7,000 3,000 Climbing FlightAware ADS-B
Tue 07:04:51 PM 41.9700 -88.2070 268° West 256 295 8,200 2,933 Climbing FlightAware ADS-B
Tue 07:05:12 PM 41.9700 -88.2390 270° West 258 297 9,200 2,625 Climbing FlightAware ADS-B
Tue 07:05:23 PM 41.9690 -88.2570 266° West 262 302 9,600 2,426 Climbing FlightAware ADS-B
Tue 07:05:59 PM 41.9680 -88.3190 269° West 276 318 11,100 2,548 Climbing FlightAware ADS-B
Tue 07:06:36 PM 41.9670 -88.3820 269° West 281 323 12,700 2,466 Climbing FlightAware ADS-B
Tue 07:07:12 PM 41.9650 -88.4460 268° West 291 335 14,100 2,206 Climbing FlightAware ADS-B
Tue 07:07:44 PM 41.9600 -88.5060 264° West 306 352 15,200 2,364 Climbing FlightAware ADS-B
Tue 07:08:18 PM 41.9540 -88.5710 263° West 309 356 16,700 2,417 Climbing FlightAware ADS-B
Tue 07:08:56 PM 41.9480 -88.6440 264° West 313 360 18,100 1,667 Climbing FlightAware ADS-B
Tue 07:09:30 PM 41.9420 -88.7100 263° West 338 389 18,700 1,714 Climbing FlightAware ADS-B
Tue 07:10:06 PM 41.9360 -88.7880 264° West 344 396 20,100 2,083 Climbing FlightAware ADS-B
Tue 07:10:42 PM 41.9310 -88.8630 265° West 349 402 21,200 1,676 Climbing FlightAware ADS-B
Tue 07:11:14 PM 41.9250 -88.9340 264° West 361 415 22,000 1,629 Climbing FlightAware ADS-B
Tue 07:11:52 PM 41.9200 -89.0080 265° West 366 421 23,100 1,971 Climbing FlightAware ADS-B
Tue 07:12:24 PM 41.9140 -89.0920 265° West 369 425 24,300 1,853 Climbing FlightAware ADS-B
Tue 07:13:00 PM 41.9070 -89.1770 264° West 377 434 25,200 1,417 Climbing FlightAware ADS-B
Tue 07:13:36 PM 41.9020 -89.2600 265° West 382 440 26,000 1,147 Climbing FlightAware ADS-B
Tue 07:14:08 PM 41.8950 -89.3350 263° West 383 441 26,500 1,500 Climbing FlightAware ADS-B
Tue 07:14:44 PM 41.8820 -89.4190 258° West 380 437 27,700 1,583 Climbing FlightAware ADS-B
Tue 07:15:20 PM 41.8690 -89.5030 258° West 386 444 28,400 1,250 Climbing FlightAware ADS-B
Tue 07:15:56 PM 41.8560 -89.5870 258° West 390 449 29,200 1,324 Climbing FlightAware ADS-B
Tue 07:16:28 PM 41.8440 -89.6640 258° West 394 453 29,900 1,200 Climbing FlightAware ADS-B
Tue 07:17:06 PM 41.8290 -89.7540 257° West 399 459 30,600 1,147 Climbing FlightAware ADS-B
Tue 07:17:36 PM 41.8180 -89.8240 258° West 401 461 31,200 1,147 Climbing FlightAware ADS-B
Tue 07:18:14 PM 41.8030 -89.9210 258° West 404 465 31,900 1,135 Climbing FlightAware ADS-B
Tue 07:18:50 PM 41.7890 -90.0070 258° West 406 467 32,600 1,083 Climbing FlightAware ADS-B
Tue 07:19:26 PM 41.7740 -90.0970 257° West 410 472 33,200 882 Climbing FlightAware ADS-B
Tue 07:19:58 PM 41.7620 -90.1750 258° West 413 475 33,600 871 Climbing FlightAware ADS-B
Tue 07:20:28 PM 41.7500 -90.2500 258° West 416 479 34,100 1,083 Climbing FlightAware ADS-B
Tue 07:21:10 PM 41.7330 -90.3560 258° West 413 475 34,900 711 Climbing FlightAware ADS-B
Tue 07:21:44 PM 41.7190 -90.4360 257° West 409 471 35,000 81 Climbing FlightAware ADS-B
Tue 07:22:24 PM 41.7030 -90.5370 258° West 409 471 35,000  Level FlightAware ADS-B
Tue 07:22:58 PM 41.6890 -90.6220 258° West 409 471 35,000  Level FlightAware ADS-B
Tue 07:23:36 PM 41.6730 -90.7130 257° West 410 472 35,000  Level FlightAware ADS-B
Tue 07:24:12 PM 41.6580 -90.8030 257° West 411 473 35,000  Level FlightAware ADS-B
Tue 07:24:43 PM 41.6450 -90.8800 257° West 413 475 35,000  Level FlightAware ADS-B
Tue 07:25:29 PM 41.6260 -90.9920 257° West 414 476 35,000  Level FlightAware ADS-B
Tue 07:26:05 PM 41.6110 -91.0840 258° West 415 478 35,000  Level FlightAware ADS-B
Tue 07:26:40 PM 41.5950 -91.1760 257° West 415 478 35,000  Level FlightAware ADS-B
Tue 07:27:13 PM 41.5810 -91.2560 257° West 416 479 35,000  Level FlightAware ADS-B
Tue 07:27:44 PM 41.5680 -91.3300 257° West 415 478 35,000  Level FlightAware ADS-B
Tue 07:28:19 PM 41.5530 -91.4210 258° West 415 478 35,000  Level FlightAware ADS-B
Tue 07:28:55 PM 41.5370 -91.5110 257° West 414 476 35,000  Level FlightAware ADS-B
Tue 07:29:31 PM 41.5220 -91.5980 257° West 412 474 35,000  Level FlightAware ADS-B
Tue 07:30:11 PM 41.5080 -91.6990 260° West 411 473 35,000  Level FlightAware ADS-B
Tue 07:30:50 PM 41.4950 -91.7950 260° West 411 473 35,000  Level FlightAware ADS-B
Tue 07:31:27 PM 41.4830 -91.8910 261° West 412 474 35,000  Level FlightAware ADS-B
Tue 07:31:59 PM 41.4720 -91.9700 259° West 413 475 35,000  Level FlightAware ADS-B
Tue 07:32:36 PM 41.4600 -92.0610 260° West 415 478 35,000  Level FlightAware ADS-B
Tue 07:33:11 PM 41.4480 -92.1470 259° West 416 479 35,000  Level FlightAware ADS-B
Tue 07:33:48 PM 41.4350 -92.2440 260° West 419 482 35,000  Level FlightAware ADS-B
Tue 07:34:20 PM 41.4240 -92.3250 260° West 421 484 35,000  Level FlightAware ADS-B
Tue 07:34:57 PM 41.4110 -92.4210 260° West 422 486 35,000  Level FlightAware ADS-B
Tue 07:35:32 PM 41.3990 -92.5100 260° West 424 488 35,000  Level FlightAware ADS-B
Tue 07:36:05 PM 41.3870 -92.5950 259° West 424 488 35,000  Level FlightAware ADS-B
Tue 07:36:41 PM 41.3750 -92.6860 260° West 423 487 35,000  Level FlightAware ADS-B
Tue 07:37:16 PM 41.3620 -92.7740 259° West 423 487 35,000  Level FlightAware ADS-B
Tue 07:37:48 PM 41.3500 -92.8590 259° West 422 486 35,000  Level FlightAware ADS-B
Tue 07:38:25 PM 41.3380 -92.9480 260° West 420 483 35,000  Level FlightAware ADS-B
Tue 07:39:02 PM 41.3240 -93.0440 259° West 419 482 35,000  Level FlightAware ADS-B
Tue 07:39:37 PM 41.3110 -93.1320 259° West 418 481 35,000 179 Level FlightAware ADS-B
Tue 07:40:09 PM 41.2990 -93.2150 259° West 423 487 35,200 400 Climbing FlightAware ADS-B
Tue 07:40:22 PM 41.2945 -93.2488 260° West 425 489 35,300 667 Climbing FlightAware ADS-B
Tue 07:40:54 PM 41.2826 -93.3300 259° West 428 493 35,700 677 Climbing FlightAware ADS-B
Tue 07:41:24 PM 41.2713 -93.4079 259° West 429 494 36,000 295 Climbing FlightAware ADS-B
Tue 07:41:55 PM 41.2598 -93.4869 259° West 425 489 36,000  Level FlightAware ADS-B
Tue 07:42:25 PM 41.2484 -93.5645 259° West 423 487 36,000  Level FlightAware ADS-B
Tue 07:42:56 PM 41.2367 -93.6432 259° West 423 487 36,000  Level FlightAware ADS-B
Tue 07:43:26 PM 41.2253 -93.7199 259° West 422 486 36,000  Level FlightAware ADS-B
Tue 07:43:56 PM 41.2139 -93.7958 259° West 422 486 36,000  Level FlightAware ADS-B
Tue 07:44:27 PM 41.2023 -93.8727 259° West 422 486 36,000  Level FlightAware ADS-B
Tue 07:44:58 PM 41.1903 -93.9526 259° West 423 487 36,000  Level FlightAware ADS-B
Tue 07:45:29 PM 41.1786 -94.0300 259° West 422 486 36,000  Level FlightAware ADS-B
Tue 07:45:59 PM 41.1669 -94.1071 259° West 423 487 36,000  Level FlightAware ADS-B
Tue 07:46:29 PM 41.1551 -94.1831 258° West 423 487 36,000  Level FlightAware ADS-B
Tue 07:47:00 PM 41.1430 -94.2609 258° West 423 487 36,000  Level FlightAware ADS-B
Tue 07:47:30 PM 41.1311 -94.3375 258° West 423 487 36,000  Level FlightAware ADS-B
Tue 07:48:01 PM 41.1190 -94.4158 258° West 423 487 36,000  Level FlightAware ADS-B
Tue 07:48:35 PM 41.1054 -94.5032 258° West 424 488 36,000  Level FlightAware ADS-B
Tue 07:49:07 PM 41.0926 -94.5849 258° West 426 490 36,000  Level FlightAware ADS-B
Tue 07:49:41 PM 41.0793 -94.6700 258° West 428 493 36,000  Level FlightAware ADS-B
Tue 07:50:11 PM 41.0671 -94.7472 258° West 430 495 36,000  Level FlightAware ADS-B
Tue 07:50:41 PM 41.0547 -94.8247 258° West 431 496 36,000  Level FlightAware ADS-B
Tue 07:51:15 PM 41.0407 -94.9115 258° West 432 497 36,000  Level FlightAware ADS-B
Tue 07:51:33 PM 41.0324 -94.9581 257° West 433 498 36,000  Level FlightAware ADS-B
Tue 07:52:03 PM 41.0146 -95.0344 253° West 435 501 36,000  Level FlightAware ADS-B
Tue 07:52:33 PM 40.9968 -95.1110 253° West 436 502 36,000  Level FlightAware ADS-B
Tue 07:53:03 PM 40.9789 -95.1885 253° West 437 503 36,000  Level FlightAware ADS-B
Tue 07:53:33 PM 40.9611 -95.2656 253° West 438 504 36,000  Level FlightAware ADS-B
Tue 07:54:05 PM 40.9425 -95.3471 253° West 438 504 36,000  Level FlightAware ADS-B
Tue 07:54:35 PM 40.9250 -95.4236 253° West 439 505 36,000  Level FlightAware ADS-B
Tue 07:55:06 PM 40.9073 -95.5018 253° West 439 505 36,000  Level FlightAware ADS-B
Tue 07:55:36 PM 40.8899 -95.5785 253° West 438 504 36,000  Level FlightAware ADS-B
Tue 07:56:06 PM 40.8722 -95.6561 253° West 439 505 36,000  Level FlightAware ADS-B
Tue 07:56:36 PM 40.8538 -95.7333 253° West 438 504 36,000  Level FlightAware ADS-B
Tue 07:57:06 PM 40.8350 -95.8091 252° West 438 504 36,000  Level FlightAware ADS-B
Tue 07:57:37 PM 40.8156 -95.8861 252° West 436 502 36,000  Level FlightAware ADS-B
Tue 07:58:07 PM 40.7966 -95.9616 252° West 435 501 36,000  Level FlightAware ADS-B
Tue 07:58:37 PM 40.7777 -96.0378 252° West 434 499 36,000  Level FlightAware ADS-B
Tue 07:59:07 PM 40.7591 -96.1136 252° West 434 499 36,000  Level FlightAware ADS-B
Tue 07:59:37 PM 40.7402 -96.1897 252° West 435 501 36,000  Level FlightAware ADS-B
Tue 08:00:08 PM 40.7213 -96.2660 252° West 434 499 36,000  Level FlightAware ADS-B
Tue 08:00:38 PM 40.7024 -96.3429 252° West 435 501 36,000  Level FlightAware ADS-B
Tue 08:01:09 PM 40.6834 -96.4198 252° West 435 501 36,000  Level FlightAware ADS-B
Tue 08:01:39 PM 40.6645 -96.4965 252° West 437 503 36,000  Level FlightAware ADS-B
Tue 08:02:11 PM 40.6447 -96.5775 252° West 439 505 36,000  Level FlightAware ADS-B
Tue 08:02:41 PM 40.6264 -96.6543 253° West 439 505 36,000  Level FlightAware ADS-B
Tue 08:03:11 PM 40.6084 -96.7310 253° West 439 505 36,000  Level FlightAware ADS-B
Tue 08:03:42 PM 40.5905 -96.8078 253° West 439 505 36,000  Level FlightAware ADS-B
Tue 08:04:12 PM 40.5724 -96.8852 253° West 439 505 36,000  Level FlightAware ADS-B
Tue 08:04:47 PM 40.5518 -96.9730 253° West 439 505 36,000  Level FlightAware ADS-B
Tue 08:05:17 PM 40.5334 -97.0505 253° West 436 502 36,000  Level FlightAware ADS-B
Tue 08:05:47 PM 40.5159 -97.1261 253° West 436 502 36,000  Level FlightAware ADS-B
Tue 08:06:17 PM 40.4984 -97.2029 253° West 434 499 36,000  Level FlightAware ADS-B
Tue 08:06:48 PM 40.4815 -97.2795 254° West 433 498 36,000  Level FlightAware ADS-B
Tue 08:06:52 PM 40.4803 -97.2890 261° West 432 497 36,000  Level FlightAware ADS-B
Tue 08:06:57 PM 40.4793 -97.3043 265° West 431 496 36,000  Level FlightAware ADS-B
Tue 08:07:04 PM 40.4799 -97.3215 273° West 432 497 36,000  Level FlightAware ADS-B
Tue 08:07:08 PM 40.4812 -97.3318 279° West 433 498 36,000  Level FlightAware ADS-B
Tue 08:07:15 PM 40.4852 -97.3501 286° West 434 499 36,000  Level FlightAware ADS-B
Tue 08:07:19 PM 40.4881 -97.3593 293° West 436 502 36,000  Level FlightAware ADS-B
Tue 08:07:25 PM 40.4932 -97.3720 298° West 438 504 36,000  Level FlightAware ADS-B
Tue 08:07:29 PM 40.4979 -97.3812 304° West 439 505 36,000  Level FlightAware ADS-B
Tue 08:07:34 PM 40.5039 -97.3911 309° West 440 506 36,000  Level FlightAware ADS-B
Tue 08:07:40 PM 40.5127 -97.4025 315° West 441 507 36,000  Level FlightAware ADS-B
Tue 08:08:10 PM 40.5592 -97.4538 320° Northwest 438 504 36,000  Level FlightAware ADS-B
Tue 08:08:40 PM 40.6062 -97.5046 321° Northwest 437 503 36,000  Level FlightAware ADS-B
Tue 08:09:10 PM 40.6535 -97.5557 321° Northwest 439 505 36,000  Level FlightAware ADS-B
Tue 08:09:16 PM 40.6631 -97.5651 323° Northwest 443 510 36,000  Level FlightAware ADS-B
Tue 08:09:23 PM 40.6756 -97.5746 330° Northwest 446 513 36,000  Level FlightAware ADS-B
Tue 08:09:26 PM 40.6813 -97.5780 336° Northwest 447 514 36,000  Level FlightAware ADS-B
Tue 08:09:31 PM 40.6910 -97.5824 341° North 447 514 36,000  Level FlightAware ADS-B
Tue 08:09:36 PM 40.7010 -97.5856 346° North 449 517 36,000  Level FlightAware ADS-B
Tue 08:09:41 PM 40.7115 -97.5875 352° North 450 518 36,000  Level FlightAware ADS-B
Tue 08:10:11 PM 40.7734 -97.5911 357° North 448 516 36,000  Level FlightAware ADS-B
Tue 08:10:33 PM 40.8187 -97.5934 358° North 446 513 36,000  Level FlightAware ADS-B
Tue 08:10:55 PM 40.8605 -97.6084 345° North 437 503 36,000  Level FlightAware ADS-B
Tue 08:11:03 PM 40.8744 -97.6195 329° Northwest 430 495 36,000  Level FlightAware ADS-B
Tue 08:11:07 PM 40.8810 -97.6264 322° Northwest 428 493 36,000  Level FlightAware ADS-B
Tue 08:11:13 PM 40.8895 -97.6371 316° Northwest 426 490 36,000  Level FlightAware ADS-B
Tue 08:11:19 PM 40.8972 -97.6497 309° West 424 488 36,000  Level FlightAware ADS-B
Tue 08:11:24 PM 40.9030 -97.6614 303° West 422 486 36,000  Level FlightAware ADS-B
Tue 08:11:30 PM 40.9078 -97.6736 298° West 421 484 36,000  Level FlightAware ADS-B
Tue 08:11:34 PM 40.9113 -97.6848 292° West 420 483 36,000  Level FlightAware ADS-B
Tue 08:11:41 PM 40.9151 -97.7021 286° West 421 484 36,000  Level FlightAware ADS-B
Tue 08:11:49 PM 40.9174 -97.7222 279° West 421 484 36,000  Level FlightAware ADS-B
Tue 08:12:20 PM 40.9233 -97.8004 276° West 421 484 36,000  Level FlightAware ADS-B
Tue 08:12:54 PM 40.9296 -97.8869 276° West 420 483 36,000  Level FlightAware ADS-B
Tue 08:13:24 PM 40.9349 -97.9636 275° West 421 484 36,000  Level FlightAware ADS-B
Tue 08:13:54 PM 40.9391 -98.0409 274° West 422 486 36,000  Level FlightAware ADS-B
Tue 08:14:28 PM 40.9432 -98.1276 274° West 423 487 36,000  Level FlightAware ADS-B
Tue 08:14:58 PM 40.9472 -98.2072 274° West 427 491 36,000  Level FlightAware ADS-B
Tue 08:15:29 PM 40.9514 -98.2861 274° West 427 491 36,000  Level FlightAware ADS-B
Tue 08:15:59 PM 40.9557 -98.3655 274° West 428 493 36,000  Level FlightAware ADS-B
Tue 08:16:57 PM 40.9635 -98.5159 274° West 428 493 36,000  Level FlightAware ADS-B
Tue 08:17:30 PM 40.9677 -98.6001 274° West 423 487 36,000  Level FlightAware ADS-B
Tue 08:18:01 PM 40.9715 -98.6801 274° West 424 488 36,000  Level FlightAware ADS-B
Tue 08:18:31 PM 40.9752 -98.7587 274° West 423 487 36,000  Level FlightAware ADS-B
Tue 08:19:01 PM 40.9790 -98.8358 274° West 422 486 36,000  Level FlightAware ADS-B
Tue 08:19:32 PM 40.9826 -98.9137 274° West 420 483 36,000  Level FlightAware ADS-B
Tue 08:20:33 PM 40.9898 -99.0699 274° West 419 482 36,000  Level FlightAware ADS-B
Tue 08:21:04 PM 40.9933 -99.1490 273° West 422 486 36,000  Level FlightAware ADS-B
Tue 08:21:36 PM 40.9970 -99.2314 273° West 422 486 36,000  Level FlightAware ADS-B
Tue 08:22:08 PM 41.0004 -99.3119 273° West 423 487 36,000  Level FlightAware ADS-B
Tue 08:22:38 PM 41.0037 -99.3898 273° West 426 490 36,000  Level FlightAware ADS-B
Tue 08:23:23 PM 41.0030 -99.4000 265° West 418 481 36,000  Level FlightAware ADS-B
Tue 08:23:57 PM 41.0060 -99.4740 273° West 418 481 36,000  Level FlightAware ADS-B
Tue 08:24:35 PM 41.0090 -99.5560 273° West 418 481 36,000  Level FlightAware ADS-B
Tue 08:25:12 PM 41.0120 -99.6370 273° West 418 481 36,000  Level FlightAware ADS-B
Tue 08:25:48 PM 41.0150 -99.7150 273° West 418 481 36,000  Level FlightAware ADS-B
Tue 08:26:24 PM 41.0180 -99.7930 273° West 418 481 36,000  Level FlightAware ADS-B
Tue 08:26:51 PM 41.0299 -100.0500 274° West 423 487 36,000  Level FlightAware ADS-B
Tue 08:27:37 PM 41.0250 -99.9520 94° East 418 481 36,000  Level FlightAware ADS-B
Tue 08:28:13 PM 41.0280 -100.0310 273° West 418 481 36,000  Level FlightAware ADS-B
Tue 08:28:49 PM 41.0310 -100.1090 273° West 418 481 36,000  Level FlightAware ADS-B
Tue 08:29:26 PM 41.0340 -100.1890 273° West 418 481 36,000  Level FlightAware ADS-B
Tue 08:30:02 PM 41.0370 -100.2680 273° West 418 481 36,000  Level FlightAware ADS-B
Tue 08:30:38 PM 41.0400 -100.3460 273° West 418 481 36,000  Level FlightAware ADS-B
Tue 08:31:24 PM 41.0553 -100.7272 273° West 425 489 36,000  Level Denver Center
Tue 08:32:26 PM 41.0594 -100.8975 272° West 421 484 36,000  Level Denver Center
Tue 08:37:43 PM 41.0790 -101.7190 272° West 418 481 36,000  Level FlightAware ADS-B
Tue 08:38:15 PM 41.0800 -101.7970 271° West 418 481 36,000  Level FlightAware ADS-B
Tue 08:38:52 PM 41.0820 -101.8770 272° West 418 481 36,000  Level FlightAware ADS-B
Tue 08:39:27 PM 41.0840 -101.9820 271° West 417 480 36,000  Level FlightAware ADS-B
Tue 08:40:02 PM 41.0860 -102.0720 272° West 416 479 36,000  Level FlightAware ADS-B
Tue 08:40:38 PM 41.0880 -102.1640 272° West 415 478 36,000  Level FlightAware ADS-B
Tue 08:41:14 PM 41.0900 -102.2550 272° West 415 478 36,000  Level FlightAware ADS-B
Tue 08:41:50 PM 41.0910 -102.3460 271° West 415 478 36,000  Level FlightAware ADS-B
Tue 08:42:22 PM 41.0920 -102.4240 271° West 415 478 36,000  Level FlightAware ADS-B
Tue 08:43:00 PM 41.0940 -102.5200 272° West 415 478 36,000  Level FlightAware ADS-B
Tue 08:43:36 PM 41.0950 -102.6130 271° West 415 478 36,000  Level FlightAware ADS-B
Tue 08:44:07 PM 41.0960 -102.6900 271° West 416 479 36,000  Level FlightAware ADS-B
Tue 08:44:44 PM 41.0980 -102.7900 272° West 416 479 36,000  Level FlightAware ADS-B
Tue 08:45:20 PM 41.0990 -102.8800 271° West 416 479 36,000  Level FlightAware ADS-B
Tue 08:45:52 PM 41.1000 -102.9620 271° West 416 479 36,000  Level FlightAware ADS-B
Tue 08:46:28 PM 41.1010 -103.0530 271° West 416 479 36,000  Level FlightAware ADS-B
Tue 08:47:06 PM 41.1020 -103.1490 271° West 415 478 36,000  Level FlightAware ADS-B
Tue 08:47:38 PM 41.1030 -103.2310 271° West 415 478 36,000  Level FlightAware ADS-B
Tue 08:48:12 PM 41.1030 -103.3180 270° West 415 478 36,000  Level FlightAware ADS-B
Tue 08:48:50 PM 41.1040 -103.4110 271° West 416 479 36,000  Level FlightAware ADS-B
Tue 08:49:20 PM 41.1050 -103.4870 271° West 416 479 36,000  Level FlightAware ADS-B
Tue 08:50:13 PM 41.1050 -103.6230 270° West 416 479 36,000  Level FlightAware ADS-B
Tue 08:50:45 PM 41.1060 -103.7040 271° West 417 480 36,000  Level FlightAware ADS-B
Tue 08:51:23 PM 41.1060 -103.8010 270° West 417 480 36,000  Level FlightAware ADS-B
Tue 08:51:59 PM 41.1070 -103.8910 271° West 415 478 36,000  Level FlightAware ADS-B
Tue 08:52:35 PM 41.1070 -103.9840 270° West 413 475 36,000  Level FlightAware ADS-B
Tue 08:53:07 PM 41.1070 -104.0620 270° West 413 475 36,000  Level FlightAware ADS-B
Tue 08:53:42 PM 41.1070 -104.1500 270° West 413 475 36,000  Level FlightAware ADS-B
Tue 08:54:19 PM 41.1070 -104.2450 270° West 414 476 36,000  Level FlightAware ADS-B
Tue 08:55:02 PM 41.1070 -104.3560 270° West 414 476 36,000  Level FlightAware ADS-B
Tue 08:55:42 PM 41.1070 -104.4580 270° West 415 478 36,000  Level FlightAware ADS-B
Tue 08:56:16 PM 41.1070 -104.5460 270° West 416 479 36,000  Level FlightAware ADS-B
Tue 08:56:52 PM 41.1070 -104.6360 270° West 417 480 36,000  Level FlightAware ADS-B
Tue 08:57:26 PM 41.1060 -104.7240 269° West 417 480 36,000  Level FlightAware ADS-B
Tue 08:58:04 PM 41.1060 -104.8170 270° West 417 480 36,000  Level FlightAware ADS-B
Tue 08:58:36 PM 41.1060 -104.9010 270° West 417 480 36,000  Level FlightAware ADS-B
Tue 08:59:12 PM 41.1050 -104.9930 269° West 416 479 36,000  Level FlightAware ADS-B
Tue 08:59:48 PM 41.1040 -105.0820 269° West 416 479 36,000  Level FlightAware ADS-B
Tue 09:00:24 PM 41.1040 -105.1760 270° West 417 480 36,000  Level FlightAware ADS-B
Tue 09:00:56 PM 41.1030 -105.2580 269° West 419 482 36,000  Level FlightAware ADS-B
Tue 09:01:32 PM 41.1020 -105.3510 269° West 420 483 36,000  Level FlightAware ADS-B
Tue 09:02:08 PM 41.1010 -105.4430 269° West 421 484 36,000 88 Level FlightAware ADS-B
Tue 09:02:40 PM 41.1010 -105.5230 270° West 424 488 36,100 870 Climbing FlightAware ADS-B
Tue 09:03:17 PM 41.1000 -105.6170 269° West 417 480 37,000 1,417 Climbing FlightAware ADS-B
Tue 09:03:52 PM 41.0980 -105.7060 268° West 409 471 37,800 870 Climbing FlightAware ADS-B
Tue 09:04:26 PM 41.0970 -105.7920 269° West 408 470 38,000 171 Climbing FlightAware ADS-B
Tue 09:05:02 PM 41.0960 -105.8800 269° West 409 471 38,000  Level FlightAware ADS-B
Tue 09:05:36 PM 41.0950 -105.9650 269° West 410 472 38,000  Level FlightAware ADS-B
Tue 09:06:10 PM 41.0940 -106.0510 269° West 411 473 38,000  Level FlightAware ADS-B
Tue 09:06:46 PM 41.0920 -106.1430 268° West 411 473 38,000  Level FlightAware ADS-B
Tue 09:07:19 PM 41.0910 -106.2250 269° West 411 473 38,000  Level FlightAware ADS-B
Tue 09:07:57 PM 41.0890 -106.3060 268° West 411 473 38,000  Level FlightAware ADS-B
Tue 09:08:42 PM 41.0870 -106.4230 269° West 412 474 38,000  Level FlightAware ADS-B
Tue 09:09:18 PM 41.0850 -106.5000 268° West 412 474 38,000  Level FlightAware ADS-B
Tue 09:09:55 PM 41.0830 -106.5790 268° West 412 474 38,000  Level FlightAware ADS-B
Tue 09:10:29 PM 41.0820 -106.7040 269° West 409 471 38,000  Level FlightAware ADS-B
Tue 09:11:25 PM 41.0790 -106.8310 268° West 409 471 38,000  Level FlightAware ADS-B
Tue 09:12:01 PM 41.0770 -106.9080 268° West 409 471 38,000  Level FlightAware ADS-B
Tue 09:12:37 PM 41.0750 -106.9850 268° West 409 471 38,000  Level FlightAware ADS-B
Tue 09:13:13 PM 41.0730 -107.0620 268° West 409 471 38,000  Level FlightAware ADS-B
Tue 09:13:49 PM 41.0710 -107.1380 268° West 409 471 38,000  Level FlightAware ADS-B
Tue 09:14:25 PM 41.0690 -107.2150 268° West 409 471 38,000  Level FlightAware ADS-B
Tue 09:15:01 PM 41.0670 -107.2920 268° West 409 471 38,000  Level FlightAware ADS-B
Tue 09:15:37 PM 41.0650 -107.3690 268° West 409 471 38,000  Level FlightAware ADS-B
Tue 09:16:13 PM 41.0630 -107.4450 268° West 409 471 38,000  Level FlightAware ADS-B
Tue 09:16:48 PM 41.0580 -107.6450 268° West 415 478 38,000  Level FlightAware ADS-B
Tue 09:17:26 PM 41.0550 -107.7270 267° West 415 478 38,000  Level FlightAware ADS-B
Tue 09:18:02 PM 41.0520 -107.8050 267° West 415 478 38,000  Level FlightAware ADS-B
Tue 09:18:38 PM 41.0490 -107.8830 267° West 415 478 38,000  Level FlightAware ADS-B
Tue 09:18:58 PM 41.0580 -107.6530 87° East 38,000  Level FlightAware ADS-B
Tue 09:19:29 PM 41.0480 -107.9960 268° West 420 483 38,000  Level FlightAware ADS-B
Tue 09:20:02 PM 41.0430 -108.1290 267° West 420 483 38,000  Level FlightAware ADS-B
Tue 09:20:38 PM 41.0400 -108.2070 267° West 420 483 38,000  Level FlightAware ADS-B
Tue 09:21:14 PM 41.0370 -108.2860 267° West 420 483 38,000  Level FlightAware ADS-B
Tue 09:21:51 PM 41.0330 -108.3670 266° West 420 483 38,000  Level FlightAware ADS-B
Tue 09:22:27 PM 41.0300 -108.4460 267° West 420 483 38,000  Level FlightAware ADS-B
Tue 09:23:03 PM 41.0270 -108.5240 267° West 420 483 38,000  Level FlightAware ADS-B
Tue 09:23:39 PM 41.0240 -108.6030 267° West 420 483 38,000  Level FlightAware ADS-B
Tue 09:24:16 PM 41.0210 -108.6840 267° West 420 483 38,000  Level FlightAware ADS-B
Tue 09:24:52 PM 41.0180 -108.7630 267° West 420 483 38,000  Level FlightAware ADS-B
Tue 09:25:28 PM 41.0150 -108.8410 267° West 420 483 38,000  Level FlightAware ADS-B
Tue 09:26:04 PM 41.0110 -108.9200 266° West 420 483 38,000  Level FlightAware ADS-B
Tue 09:26:40 PM 41.0080 -108.9990 267° West 420 483 38,000  Level FlightAware ADS-B
Tue 09:27:16 PM 41.0050 -109.0780 267° West 420 483 38,000  Level FlightAware ADS-B
Tue 09:27:52 PM 41.0020 -109.1560 267° West 420 483 38,000  Level FlightAware ADS-B
Tue 09:28:28 PM 40.9990 -109.2350 267° West 420 483 38,000  Level FlightAware ADS-B
Tue 09:29:04 PM 40.9960 -109.3140 267° West 420 483 38,000  Level FlightAware ADS-B
Tue 09:32:58 PM 40.9579 -110.1560 267° West 435 501 38,000  Level FlightAware ADS-B
Tue 09:33:28 PM 40.9538 -110.2340 266° West 436 502 38,000  Level FlightAware ADS-B
Tue 09:33:58 PM 40.9496 -110.3150 266° West 436 502 38,000  Level FlightAware ADS-B
Tue 09:34:28 PM 40.9454 -110.3940 266° West 436 502 38,000  Level FlightAware ADS-B
Tue 09:35:01 PM 40.9436 -110.4270 266° West 437 503 38,000  Level FlightAware ADS-B
Tue 09:35:17 PM 40.9420 -110.4560 266° West 437 503 38,000  Level FlightAware ADS-B
Tue 09:35:47 PM 40.9336 -110.6090 266° West 436 502 38,000  Level FlightAware ADS-B
Tue 09:36:17 PM 40.9294 -110.6880 266° West 435 501 38,000  Level FlightAware ADS-B
Tue 09:36:59 PM 40.9230 -110.8000 266° West 435 501 38,000  Level FlightAware ADS-B
Tue 09:37:30 PM 40.9186 -110.8820 266° West 434 499 38,000  Level FlightAware ADS-B
Tue 09:38:00 PM 40.9140 -110.9620 266° West 434 499 38,000  Level FlightAware ADS-B
Tue 09:38:31 PM 40.9091 -111.0440 266° West 434 499 38,000  Level FlightAware ADS-B
Tue 09:39:02 PM 40.9046 -111.1240 266° West 434 499 38,000  Level FlightAware ADS-B
Tue 09:39:32 PM 40.8998 -111.2030 265° West 435 501 38,000  Level FlightAware ADS-B
Tue 09:40:02 PM 40.8947 -111.2850 265° West 436 502 38,000  Level FlightAware ADS-B
Tue 09:40:33 PM 40.8899 -111.3650 265° West 438 504 38,000  Level FlightAware ADS-B
Tue 09:41:03 PM 40.8849 -111.4450 265° West 439 505 38,000  Level FlightAware ADS-B
Tue 09:41:35 PM 40.8797 -111.5280 265° West 440 506 38,000  Level FlightAware ADS-B
Tue 09:42:05 PM 40.8746 -111.6090 265° West 443 510 38,000  Level FlightAware ADS-B
Tue 09:42:35 PM 40.8694 -111.6910 265° West 445 512 38,000  Level FlightAware ADS-B
Tue 09:43:08 PM 40.8638 -111.7770 265° West 446 513 38,000  Level FlightAware ADS-B
Tue 09:43:38 PM 40.8583 -111.8590 265° West 446 513 38,000  Level FlightAware ADS-B
Tue 09:44:10 PM 40.8526 -111.9460 265° West 446 513 38,000  Level FlightAware ADS-B
Tue 09:44:29 PM 40.8506 -111.9760 265° West 445 512 38,000  Level FlightAware ADS-B
Tue 09:44:57 PM 40.8492 -111.9960 265° West 445 512 38,000  Level FlightAware ADS-B
Tue 09:45:11 PM 40.8460 -112.0470 265° West 445 512 38,000  Level FlightAware ADS-B
Tue 09:45:42 PM 40.8365 -112.2000 265° West 445 512 38,000  Level FlightAware ADS-B
Tue 09:46:13 PM 40.8314 -112.2800 265° West 445 512 38,000  Level FlightAware ADS-B
Tue 09:46:44 PM 40.8260 -112.3620 265° West 445 512 38,000  Level FlightAware ADS-B
Tue 09:47:14 PM 40.8207 -112.4430 265° West 444 511 38,000  Level FlightAware ADS-B
Tue 09:47:45 PM 40.8150 -112.5260 265° West 444 511 38,000  Level FlightAware ADS-B
Tue 09:48:15 PM 40.8096 -112.6080 265° West 445 512 38,000  Level FlightAware ADS-B
Tue 09:48:52 PM 40.8028 -112.7070 265° West 447 514 38,000  Level FlightAware ADS-B
Tue 09:49:23 PM 40.7971 -112.7900 265° West 450 518 38,000  Level FlightAware ADS-B
Tue 09:50:03 PM 40.7896 -112.8970 265° West 451 519 38,000  Level FlightAware ADS-B
Tue 09:50:34 PM 40.7853 -112.9600 265° West 451 519 38,000  Level FlightAware ADS-B
Tue 09:50:55 PM 40.7825 -113.0000 265° West 452 520 38,000  Level FlightAware ADS-B
Tue 09:51:25 PM 40.7736 -113.1260 265° West 453 521 38,000  Level FlightAware ADS-B
Tue 09:51:56 PM 40.7667 -113.2080 264° West 453 521 38,000  Level FlightAware ADS-B
Tue 09:52:26 PM 40.7583 -113.2920 263° West 455 524 38,000  Level FlightAware ADS-B
Tue 09:53:11 PM 40.7460 -113.4150 263° West 455 524 38,000  Level FlightAware ADS-B
Tue 09:53:41 PM 40.7380 -113.4980 263° West 455 524 38,000  Level FlightAware ADS-B
Tue 09:54:23 PM 40.7268 -113.6130 263° West 455 524 38,000  Level FlightAware ADS-B
Tue 09:54:54 PM 40.7184 -113.6980 263° West 454 522 38,000  Level FlightAware ADS-B
Tue 09:55:24 PM 40.7101 -113.7810 263° West 453 521 38,000  Level FlightAware ADS-B
Tue 09:56:16 PM 40.6960 -113.9160 262° West 452 520 38,000  Level FlightAware ADS-B
Tue 09:56:23 PM 40.6941 -113.9380 264° West 452 520 38,000  Level FlightAware ADS-B
Tue 09:56:54 PM 40.6856 -114.0230 263° West 450 518 38,000  Level FlightAware ADS-B
Tue 09:57:24 PM 40.6770 -114.1060 262° West 449 517 38,000  Level FlightAware ADS-B
Tue 09:57:55 PM 40.6680 -114.1920 262° West 448 516 38,000  Level FlightAware ADS-B
Tue 09:58:46 PM 40.6590 -114.2690 261° West 451 519 38,000  Level FlightAware ADS-B
Tue 09:59:22 PM 40.6432 -114.4280 263° West 447 514 38,000  Level FlightAware ADS-B
Tue 09:59:54 PM 40.6342 -114.5130 262° West 448 516 38,000  Level FlightAware ADS-B
Tue 10:00:28 PM 40.6245 -114.6050 262° West 449 517 38,000  Level FlightAware ADS-B
Tue 10:01:03 PM 40.6142 -114.7000 262° West 451 519 38,000  Level FlightAware ADS-B
Tue 10:01:47 PM 40.6140 -114.6880 91° East 451 519 38,000  Level FlightAware ADS-B
Tue 10:02:24 PM 40.6050 -114.7730 262° West 451 519 38,000  Level FlightAware ADS-B
Tue 10:03:01 PM 40.5960 -114.8590 262° West 451 519 38,000  Level FlightAware ADS-B
Tue 10:03:37 PM 40.5870 -114.9420 262° West 451 519 38,000  Level FlightAware ADS-B
Tue 10:03:46 PM 40.5652 -115.1430 262° West 453 521 38,000  Level FlightAware ADS-B
Tue 10:04:18 PM 40.5556 -115.2300 262° West 453 521 38,000  Level FlightAware ADS-B
Tue 10:04:49 PM 40.5461 -115.3130 261° West 453 521 38,000  Level FlightAware ADS-B
Tue 10:05:27 PM 40.5341 -115.4170 261° West 452 520 38,000  Level FlightAware ADS-B
Tue 10:06:01 PM 40.5510 -115.2750 81° East 451 519 38,000  Level FlightAware ADS-B
Tue 10:09:48 PM 40.4506 -116.1220 261° West 454 522 38,000  Level FlightAware ADS-B
Tue 10:10:19 PM 40.4403 -116.2060 261° West 454 522 38,000  Level FlightAware ADS-B
Tue 10:10:49 PM 40.4302 -116.2890 261° West 454 522 38,000  Level FlightAware ADS-B
Tue 10:11:19 PM 40.4203 -116.3700 261° West 455 524 38,000  Level FlightAware ADS-B
Tue 10:11:50 PM 40.4101 -116.4530 261° West 455 524 38,000  Level FlightAware ADS-B
Tue 10:12:31 PM 40.3997 -116.5353 261° West 453 521 38,000  Level Salt Lake Center
Tue 10:13:32 PM 40.3758 -116.7167 260° West 452 520 38,000  Level Salt Lake Center
Tue 10:14:33 PM 40.3542 -116.8828 260° West 457 526 38,000  Level Salt Lake Center
Tue 10:20:02 PM 40.2360 -117.7880 260° West 455 524 38,000  Level FlightAware ADS-B
Tue 10:20:38 PM 40.2230 -117.8830 260° West 455 524 38,000 -1,083 Level FlightAware ADS-B
Tue 10:21:14 PM 40.2090 -117.9810 259° West 451 519 36,700 -2,500 Descending FlightAware ADS-B
Tue 10:21:50 PM 40.1960 -118.0780 260° West 456 525 35,000 -2,912 Descending FlightAware ADS-B
Tue 10:22:22 PM 40.1840 -118.1660 260° West 465 535 33,400 -3,088 Descending FlightAware ADS-B
Tue 10:22:58 PM 40.1700 -118.2650 260° West 470 541 31,500 -3,000 Descending FlightAware ADS-B
Tue 10:23:30 PM 40.1570 -118.3560 259° West 470 541 30,000 -2,545 Descending FlightAware ADS-B
Tue 10:24:04 PM 40.1440 -118.4470 259° West 464 534 28,700 -2,417 Descending FlightAware ADS-B
Tue 10:24:42 PM 40.1290 -118.5560 260° West 457 526 27,100 -2,189 Descending FlightAware ADS-B
Tue 10:25:18 PM 40.1110 -118.6490 256° West 446 513 26,000 -1,029 Descending FlightAware ADS-B
Tue 10:25:52 PM 40.0960 -118.7250 256° West 446 513 25,900 -2,261 Descending FlightAware ADS-B
Tue 10:26:27 PM 40.0770 -118.8270 256° West 446 513 23,400 -3,000 Descending FlightAware ADS-B
Tue 10:27:02 PM 40.0590 -118.9200 256° West 430 495 22,400 -1,775 Descending FlightAware ADS-B
Tue 10:27:38 PM 40.0420 -119.0080 256° West 415 478 21,300 -1,917 Descending FlightAware ADS-B
Tue 10:28:14 PM 40.0250 -119.0940 256° West 406 467 20,100 -1,231 Descending FlightAware ADS-B
Tue 10:28:56 PM 40.0070 -119.1810 255° West 404 465 19,700 -308 Descending FlightAware ADS-B
Tue 10:29:32 PM 39.9930 -119.2530 256° West 404 465 19,700  Level FlightAware ADS-B
Tue 10:30:08 PM 39.9780 -119.3250 255° West 404 465 19,700  Level FlightAware ADS-B
Tue 10:30:44 PM 39.9630 -119.3970 255° West 404 465 19,700 -6,383 Level FlightAware ADS-B
Tue 10:30:55 PM 39.9330 -119.4450 231° Southwest 363 418 14,700 -7,565 Descending FlightAware ADS-B
Tue 10:31:30 PM 39.9000 -119.5050 234° Southwest 334 384 13,900 -1,433 Descending FlightAware ADS-B
Tue 10:32:02 PM 39.8710 -119.5560 233° Southwest 312 359 13,100 -1,543 Descending FlightAware ADS-B
Tue 10:32:40 PM 39.8390 -119.6110 233° Southwest 301 346 12,100 -1,622 Descending FlightAware ADS-B
Tue 10:33:16 PM 39.8100 -119.6630 234° Southwest 291 335 11,100 -1,433 Descending FlightAware ADS-B
Tue 10:33:47 PM 39.7880 -119.7050 236° Southwest 273 314 10,500 -1,714 Descending FlightAware ADS-B
Tue 10:34:12 PM 39.7690 -119.7390 234° Southwest 265 305 9,500 -2,267 Descending FlightAware ADS-B
Tue 10:34:32 PM 39.7550 -119.7640 234° Southwest 260 299 8,800 -2,143 Descending FlightAware ADS-B
Tue 10:34:40 PM 39.7470 -119.7710 214° Southwest 259 298 8,500 -2,000 Descending FlightAware ADS-B
Tue 10:34:44 PM 39.7420 -119.7740 205° Southwest 260 299 8,400 -1,500 Descending FlightAware ADS-B
Tue 10:34:52 PM 39.7330 -119.7760 190° South 258 297 8,200 -643 Descending FlightAware ADS-B
Tue 10:35:12 PM 39.7100 -119.7690 167° South 245 282 8,100 -214 Descending FlightAware ADS-B
Tue 10:35:20 PM 39.7020 -119.7680 175° South 242 278 8,100 -750 Level FlightAware ADS-B
Tue 10:35:28 PM 39.6930 -119.7680 180° South 241 277 7,900 -1,714 Descending FlightAware ADS-B
Tue 10:35:48 PM 39.6700 -119.7690 182° South 234 269 7,300 -1,435 Descending FlightAware ADS-B
Tue 10:36:14 PM 39.6430 -119.7690 180° South 211 243 6,800 -1,000 Descending FlightAware ADS-B
Tue 10:36:36 PM 39.6230 -119.7690 180° South 202 232 6,500 -913 Descending FlightAware ADS-B
Tue 10:37:00 PM 39.6010 -119.7690 180° South 189 217 6,100 -1,091 Descending FlightAware ADS-B
Tue 10:37:20 PM 39.5840 -119.7690 180° South 184 212 5,700 -1,000 Descending FlightAware ADS-B
Tue 10:37:48 PM 39.5610 -119.7690 180° South 178 205 5,300 -818 Descending FlightAware ADS-B
Tue 10:38:04 PM 39.5470 -119.7690 180° South 178 205 5,100 -938 Descending FlightAware ADS-B
Tue 10:38:20 PM 39.5340 -119.7690 180° South 179 206 4,800 -906 Descending FlightAware ADS-B
Tue 10:38:57 PM 39.5050 -119.7690 180° South 170 196 4,300 -811 Descending FlightAware ADS-B
Tue 10:39:18 PM 39.4920 -119.7690 180° South 100 115 -12,286 Descending FlightAware ADS-B

Login

Don't have an account? Register now (free) for customized features, flight alerts, and more!